sensor_id;sensor_type;location;lat;lon;timestamp;pressure;altitude;pressure_sealevel;temperature;humidity
52923;BME280;38796;42.702;23.306;2023-02-10T00:01:53;97084.75;;;-7.42;76.01
52923;BME280;38796;42.702;23.306;2023-02-10T00:03:54;97077.88;;;-7.46;76.79
52923;BME280;38796;42.702;23.306;2023-02-10T00:05:54;97085.47;;;-7.51;77.30
52923;BME280;38796;42.702;23.306;2023-02-10T00:07:52;97089.69;;;-7.54;77.81
52923;BME280;38796;42.702;23.306;2023-02-10T00:09:50;97092.22;;;-7.59;78.02
52923;BME280;38796;42.702;23.306;2023-02-10T00:11:48;97093.91;;;-7.58;78.00
52923;BME280;38796;42.702;23.306;2023-02-10T00:13:56;97086.16;;;-7.65;78.32
52923;BME280;38796;42.702;23.306;2023-02-10T00:15:57;97082.78;;;-7.61;78.62
52923;BME280;38796;42.702;23.306;2023-02-10T00:17:55;97084.44;;;-7.66;78.78
52923;BME280;38796;42.702;23.306;2023-02-10T00:19:55;97078.47;;;-7.65;79.19
52923;BME280;38796;42.702;23.306;2023-02-10T00:21:53;97080.19;;;-7.66;79.46
52923;BME280;38796;42.702;23.306;2023-02-10T00:23:52;97087.84;;;-7.67;79.71
52923;BME280;38796;42.702;23.306;2023-02-10T00:25:50;97081.81;;;-7.72;79.72
52923;BME280;38796;42.702;23.306;2023-02-10T00:27:48;97076.66;;;-7.76;79.96
52923;BME280;38796;42.702;23.306;2023-02-10T00:29:46;97091.97;;;-7.77;80.18
52923;BME280;38796;42.702;23.306;2023-02-10T00:31:46;97086.91;;;-7.72;80.85
52923;BME280;38796;42.702;23.306;2023-02-10T00:33:44;97079.16;;;-7.82;80.68
52923;BME280;38796;42.702;23.306;2023-02-10T00:35:44;97074.06;;;-7.79;81.11
52923;BME280;38796;42.702;23.306;2023-02-10T00:37:43;97069.81;;;-7.78;81.01
52923;BME280;38796;42.702;23.306;2023-02-10T00:39:42;97071.53;;;-7.79;81.18
52923;BME280;38796;42.702;23.306;2023-02-10T00:41:42;97070.53;;;-7.87;81.64
52923;BME280;38796;42.702;23.306;2023-02-10T00:43:40;97065.41;;;-7.88;81.66
52923;BME280;38796;42.702;23.306;2023-02-10T00:45:41;97059.31;;;-7.98;82.11
52923;BME280;38796;42.702;23.306;2023-02-10T00:47:39;97061.09;;;-7.92;82.40
52923;BME280;38796;42.702;23.306;2023-02-10T00:49:37;97050.88;;;-7.91;82.16
52923;BME280;38796;42.702;23.306;2023-02-10T00:51:37;97056.91;;;-7.89;82.34
52923;BME280;38796;42.702;23.306;2023-02-10T00:53:36;97057.75;;;-7.88;82.22
52923;BME280;38796;42.702;23.306;2023-02-10T00:55:33;97056.00;;;-7.92;82.26
52923;BME280;38796;42.702;23.306;2023-02-10T00:57:31;97044.88;;;-7.96;82.14
52923;BME280;38796;42.702;23.306;2023-02-10T00:59:30;97052.53;;;-7.96;82.32
52923;BME280;38796;42.702;23.306;2023-02-10T01:01:28;97049.97;;;-7.96;82.36
52923;BME280;38796;42.702;23.306;2023-02-10T01:03:26;97045.69;;;-7.97;81.72
52923;BME280;38796;42.702;23.306;2023-02-10T01:05:25;97053.44;;;-7.91;81.69
52923;BME280;38796;42.702;23.306;2023-02-10T01:07:24;97049.31;;;-7.81;81.82
52923;BME280;38796;42.702;23.306;2023-02-10T01:09:22;97046.28;;;-7.48;81.30
52923;BME280;38796;42.702;23.306;2023-02-10T01:11:21;97051.25;;;-7.62;80.30
52923;BME280;38796;42.702;23.306;2023-02-10T01:13:20;97047.66;;;-7.76;80.87
52923;BME280;38796;42.702;23.306;2023-02-10T01:15:18;97045.81;;;-7.86;81.28
52923;BME280;38796;42.702;23.306;2023-02-10T01:17:17;97044.06;;;-7.90;81.81
52923;BME280;38796;42.702;23.306;2023-02-10T01:19:15;97039.75;;;-7.94;81.82
52923;BME280;38796;42.702;23.306;2023-02-10T01:21:15;97038.00;;;-7.99;82.18
52923;BME280;38796;42.702;23.306;2023-02-10T01:23:15;97037.13;;;-8.02;82.13
52923;BME280;38796;42.702;23.306;2023-02-10T01:25:13;97033.56;;;-8.12;82.40
52923;BME280;38796;42.702;23.306;2023-02-10T01:27:12;97036.13;;;-8.13;83.03
52923;BME280;38796;42.702;23.306;2023-02-10T01:29:11;97036.13;;;-8.13;83.04
52923;BME280;38796;42.702;23.306;2023-02-10T01:31:11;97036.13;;;-8.13;83.02
52923;BME280;38796;42.702;23.306;2023-02-10T01:33:09;97036.88;;;-8.19;82.98
52923;BME280;38796;42.702;23.306;2023-02-10T01:35:07;97026.63;;;-8.22;83.43
52923;BME280;38796;42.702;23.306;2023-02-10T01:37:06;97032.59;;;-8.22;83.74
52923;BME280;38796;42.702;23.306;2023-02-10T01:39:06;97038.53;;;-8.23;83.91
52923;BME280;38796;42.702;23.306;2023-02-10T01:41:05;97024.94;;;-8.22;83.63
52923;BME280;38796;42.702;23.306;2023-02-10T01:43:11;97030.09;;;-8.18;84.04
52923;BME280;38796;42.702;23.306;2023-02-10T01:45:17;97024.94;;;-8.20;83.83
52923;BME280;38796;42.702;23.306;2023-02-10T01:47:16;97018.03;;;-8.27;83.76
52923;BME280;38796;42.702;23.306;2023-02-10T01:49:16;97016.34;;;-8.27;83.81
52923;BME280;38796;42.702;23.306;2023-02-10T01:51:16;97012.06;;;-8.28;84.22
52923;BME280;38796;42.702;23.306;2023-02-10T01:53:17;97023.06;;;-8.33;85.07
52923;BME280;38796;42.702;23.306;2023-02-10T01:55:19;97021.28;;;-8.40;85.61
52923;BME280;38796;42.702;23.306;2023-02-10T01:57:19;97015.25;;;-8.45;85.99
52923;BME280;38796;42.702;23.306;2023-02-10T01:59:19;97014.34;;;-8.49;86.20
52923;BME280;38796;42.702;23.306;2023-02-10T02:01:18;97014.25;;;-8.55;86.88
52923;BME280;38796;42.702;23.306;2023-02-10T02:03:17;97007.50;;;-8.52;87.28
52923;BME280;38796;42.702;23.306;2023-02-10T02:05:22;97009.25;;;-8.49;86.80
52923;BME280;38796;42.702;23.306;2023-02-10T02:07:23;96998.97;;;-8.54;86.62
52923;BME280;38796;42.702;23.306;2023-02-10T02:09:22;97007.44;;;-8.58;86.77
52923;BME280;38796;42.702;23.306;2023-02-10T02:11:26;96999.72;;;-8.61;87.11
52923;BME280;38796;42.702;23.306;2023-02-10T02:15:53;97000.41;;;-8.71;87.62
52923;BME280;38796;42.702;23.306;2023-02-10T02:18:01;96997.81;;;-8.76;87.82
52923;BME280;38796;42.702;23.306;2023-02-10T02:20:28;96993.44;;;-8.83;88.27
52923;BME280;38796;42.702;23.306;2023-02-10T02:25:31;96991.63;;;-8.90;88.29
52923;BME280;38796;42.702;23.306;2023-02-10T02:27:52;96993.28;;;-8.93;88.38
52923;BME280;38796;42.702;23.306;2023-02-10T02:30:15;96991.56;;;-8.93;88.57
52923;BME280;38796;42.702;23.306;2023-02-10T02:32:19;97002.47;;;-9.02;88.87
52923;BME280;38796;42.702;23.306;2023-02-10T02:34:22;97003.38;;;-9.01;88.80
52923;BME280;38796;42.702;23.306;2023-02-10T02:36:26;97001.56;;;-9.05;88.86
52923;BME280;38796;42.702;23.306;2023-02-10T02:38:26;96998.94;;;-9.11;88.86
52923;BME280;38796;42.702;23.306;2023-02-10T02:40:24;96997.16;;;-9.15;88.65
52923;BME280;38796;42.702;23.306;2023-02-10T02:42:24;96991.13;;;-9.21;88.99
52923;BME280;38796;42.702;23.306;2023-02-10T02:44:23;96996.22;;;-9.22;88.49
52923;BME280;38796;42.702;23.306;2023-02-10T02:46:28;96997.84;;;-9.26;88.67
52923;BME280;38796;42.702;23.306;2023-02-10T02:48:49;96988.44;;;-9.27;88.12
52923;BME280;38796;42.702;23.306;2023-02-10T02:50:57;96995.28;;;-9.26;87.78
52923;BME280;38796;42.702;23.306;2023-02-10T02:53:10;96984.25;;;-9.23;88.01
52923;BME280;38796;42.702;23.306;2023-02-10T02:55:21;96995.25;;;-9.29;87.60
52923;BME280;38796;42.702;23.306;2023-02-10T02:57:28;96991.75;;;-9.34;87.61
52923;BME280;38796;42.702;23.306;2023-02-10T02:59:35;96993.41;;;-9.36;87.78
52923;BME280;38796;42.702;23.306;2023-02-10T03:01:41;96983.16;;;-9.39;87.45
52923;BME280;38796;42.702;23.306;2023-02-10T03:03:42;96987.38;;;-9.41;87.50
52923;BME280;38796;42.702;23.306;2023-02-10T03:05:40;96983.09;;;-9.42;87.24
52923;BME280;38796;42.702;23.306;2023-02-10T03:07:39;96984.78;;;-9.43;87.31
52923;BME280;38796;42.702;23.306;2023-02-10T03:09:37;96981.38;;;-9.43;87.45
52923;BME280;38796;42.702;23.306;2023-02-10T03:11:36;96981.38;;;-9.43;87.28
52923;BME280;38796;42.702;23.306;2023-02-10T03:13:34;96992.00;;;-9.18;88.58
52923;BME280;38796;42.702;23.306;2023-02-10T03:15:32;96981.31;;;-8.95;87.90
52923;BME280;38796;42.702;23.306;2023-02-10T03:17:31;96991.22;;;-9.13;86.63
52923;BME280;38796;42.702;23.306;2023-02-10T03:19:30;96997.84;;;-9.26;86.50
52923;BME280;38796;42.702;23.306;2023-02-10T03:21:29;97002.84;;;-9.32;87.11
52923;BME280;38796;42.702;23.306;2023-02-10T03:23:27;97000.22;;;-9.35;87.25
52923;BME280;38796;42.702;23.306;2023-02-10T03:25:25;96998.47;;;-9.39;87.48
52923;BME280;38796;42.702;23.306;2023-02-10T03:27:23;96989.09;;;-9.38;87.55
52923;BME280;38796;42.702;23.306;2023-02-10T03:29:22;96989.09;;;-9.40;87.47
52923;BME280;38796;42.702;23.306;2023-02-10T03:31:20;96985.69;;;-9.39;88.06
52923;BME280;38796;42.702;23.306;2023-02-10T03:33:19;96989.06;;;-9.41;88.00
52923;BME280;38796;42.702;23.306;2023-02-10T03:35:19;96989.09;;;-9.40;87.76
52923;BME280;38796;42.702;23.306;2023-02-10T03:37:17;96991.69;;;-9.37;88.36
52923;BME280;38796;42.702;23.306;2023-02-10T03:39:16;96985.66;;;-9.42;88.24
52923;BME280;38796;42.702;23.306;2023-02-10T03:41:14;96986.53;;;-9.40;88.50
52923;BME280;38796;42.702;23.306;2023-02-10T03:43:12;96986.53;;;-9.40;88.46
52923;BME280;38796;42.702;23.306;2023-02-10T03:45:11;96972.94;;;-9.39;88.47
52923;BME280;38796;42.702;23.306;2023-02-10T03:47:09;96972.94;;;-9.39;88.84
52923;BME280;38796;42.702;23.306;2023-02-10T03:49:07;96972.88;;;-9.44;88.95
52923;BME280;38796;42.702;23.306;2023-02-10T03:51:08;96969.44;;;-9.46;89.37
52923;BME280;38796;42.702;23.306;2023-02-10T03:53:07;96961.78;;;-9.46;89.49
52923;BME280;38796;42.702;23.306;2023-02-10T03:55:06;96964.38;;;-9.44;89.30
52923;BME280;38796;42.702;23.306;2023-02-10T03:57:04;96965.22;;;-9.44;89.28
52923;BME280;38796;42.702;23.306;2023-02-10T03:59:03;96966.09;;;-9.41;89.20
52923;BME280;38796;42.702;23.306;2023-02-10T04:01:08;96960.13;;;-9.44;89.45
52923;BME280;38796;42.702;23.306;2023-02-10T04:03:07;96954.97;;;-9.48;89.07
52923;BME280;38796;42.702;23.306;2023-02-10T04:05:06;96966.88;;;-9.47;89.64
52923;BME280;38796;42.702;23.306;2023-02-10T04:07:06;96960.00;;;-9.50;89.77
52923;BME280;38796;42.702;23.306;2023-02-10T04:09:04;96962.56;;;-9.51;89.75
52923;BME280;38796;42.702;23.306;2023-02-10T04:11:03;96967.66;;;-9.51;89.76
52923;BME280;38796;42.702;23.306;2023-02-10T04:13:02;96960.00;;;-9.50;89.45
52923;BME280;38796;42.702;23.306;2023-02-10T04:15:00;96963.28;;;-9.58;89.29
52923;BME280;38796;42.702;23.306;2023-02-10T04:17:03;96958.06;;;-9.64;89.95
52923;BME280;38796;42.702;23.306;2023-02-10T04:19:07;96962.44;;;-9.57;90.01
52923;BME280;38796;42.702;23.306;2023-02-10T04:21:06;96956.50;;;-9.56;90.08
52923;BME280;38796;42.702;23.306;2023-02-10T04:23:06;96966.75;;;-9.55;89.83
52923;BME280;38796;42.702;23.306;2023-02-10T04:25:05;96962.56;;;-9.51;89.59
52923;BME280;38796;42.702;23.306;2023-02-10T04:27:04;96960.00;;;-9.50;89.74
52923;BME280;38796;42.702;23.306;2023-02-10T04:29:02;96960.00;;;-9.51;89.79
52923;BME280;38796;42.702;23.306;2023-02-10T04:31:03;96965.13;;;-9.50;89.81
52923;BME280;38796;42.702;23.306;2023-02-10T04:33:08;96966.75;;;-9.53;89.67
52923;BME280;38796;42.702;23.306;2023-02-10T04:35:06;96957.38;;;-9.54;89.79
52923;BME280;38796;42.702;23.306;2023-02-10T04:37:05;96957.38;;;-9.54;89.57
52923;BME280;38796;42.702;23.306;2023-02-10T04:39:05;96963.28;;;-9.58;89.67
52923;BME280;38796;42.702;23.306;2023-02-10T04:41:03;96968.38;;;-9.57;90.11
52923;BME280;38796;42.702;23.306;2023-02-10T04:43:02;96967.47;;;-9.60;90.06
52923;BME280;38796;42.702;23.306;2023-02-10T04:45:00;96965.03;;;-9.54;89.85
52923;BME280;38796;42.702;23.306;2023-02-10T04:46:59;96967.53;;;-9.56;89.48
52923;BME280;38796;42.702;23.306;2023-02-10T04:48:57;96967.72;;;-9.48;90.68
52923;BME280;38796;42.702;23.306;2023-02-10T04:50:55;96966.03;;;-9.46;90.80
52923;BME280;38796;42.702;23.306;2023-02-10T04:52:54;96971.06;;;-9.49;90.31
52923;BME280;38796;42.702;23.306;2023-02-10T04:54:53;96972.75;;;-9.51;90.32
52923;BME280;38796;42.702;23.306;2023-02-10T04:56:52;96965.00;;;-9.56;90.37
52923;BME280;38796;42.702;23.306;2023-02-10T04:58:50;96964.16;;;-9.56;90.32
52923;BME280;38796;42.702;23.306;2023-02-10T05:00:48;96974.34;;;-9.56;89.97
52923;BME280;38796;42.702;23.306;2023-02-10T05:02:47;96974.41;;;-9.53;90.06
52923;BME280;38796;42.702;23.306;2023-02-10T05:04:45;96972.63;;;-9.57;90.15
52923;BME280;38796;42.702;23.306;2023-02-10T05:06:43;96976.88;;;-9.56;90.53
52923;BME280;38796;42.702;23.306;2023-02-10T05:08:42;96974.28;;;-9.59;90.44
52923;BME280;38796;42.702;23.306;2023-02-10T05:10:42;96977.78;;;-9.54;90.61
52923;BME280;38796;42.702;23.306;2023-02-10T05:12:40;96987.09;;;-9.56;90.96
52923;BME280;38796;42.702;23.306;2023-02-10T05:14:38;96980.28;;;-9.57;90.63
52923;BME280;38796;42.702;23.306;2023-02-10T05:16:37;96985.38;;;-9.59;90.61
52923;BME280;38796;42.702;23.306;2023-02-10T05:18:35;96986.25;;;-9.57;90.93
52923;BME280;38796;42.702;23.306;2023-02-10T05:20:36;96988.00;;;-9.54;90.57
52923;BME280;38796;42.702;23.306;2023-02-10T05:22:34;97002.56;;;-9.47;90.84
52923;BME280;38796;42.702;23.306;2023-02-10T05:24:33;97005.19;;;-9.43;90.49
52923;BME280;38796;42.702;23.306;2023-02-10T05:26:32;97012.78;;;-9.46;90.27
52923;BME280;38796;42.702;23.306;2023-02-10T05:28:30;97007.69;;;-9.46;90.11
52923;BME280;38796;42.702;23.306;2023-02-10T05:30:31;97015.38;;;-9.44;90.22
52923;BME280;38796;42.702;23.306;2023-02-10T05:32:29;97015.41;;;-9.43;90.07
52923;BME280;38796;42.702;23.306;2023-02-10T05:34:27;97017.16;;;-9.38;89.89
52923;BME280;38796;42.702;23.306;2023-02-10T05:36:25;97024.03;;;-9.34;89.51
52923;BME280;38796;42.702;23.306;2023-02-10T05:38:24;97020.69;;;-9.32;89.45
52923;BME280;38796;42.702;23.306;2023-02-10T05:40:23;97025.78;;;-9.33;89.09
52923;BME280;38796;42.702;23.306;2023-02-10T05:42:23;97027.50;;;-9.32;89.27
52923;BME280;38796;42.702;23.306;2023-02-10T05:44:22;97029.19;;;-9.33;89.18
52923;BME280;38796;42.702;23.306;2023-02-10T05:46:20;97026.63;;;-9.33;88.91
52923;BME280;38796;42.702;23.306;2023-02-10T05:48:18;97030.84;;;-9.35;88.88
52923;BME280;38796;42.702;23.306;2023-02-10T05:50:17;97034.28;;;-9.33;88.82
52923;BME280;38796;42.702;23.306;2023-02-10T05:52:16;97031.81;;;-9.27;88.99
52923;BME280;38796;42.702;23.306;2023-02-10T05:54:14;97037.09;;;-9.19;88.82
52923;BME280;38796;42.702;23.306;2023-02-10T05:56:12;97034.66;;;-9.11;88.15
52923;BME280;38796;42.702;23.306;2023-02-10T05:58:12;97033.28;;;-8.92;87.73
52923;BME280;38796;42.702;23.306;2023-02-10T06:00:12;97032.00;;;-8.64;86.91
52923;BME280;38796;42.702;23.306;2023-02-10T06:02:10;97035.63;;;-8.50;85.87
52923;BME280;38796;42.702;23.306;2023-02-10T06:04:09;97034.94;;;-8.40;85.11
52923;BME280;38796;42.702;23.306;2023-02-10T06:06:08;97033.66;;;-8.06;84.94
52923;BME280;38796;42.702;23.306;2023-02-10T06:08:06;97029.50;;;-7.23;82.83
52923;BME280;38796;42.702;23.306;2023-02-10T06:10:06;97037.81;;;-6.48;78.92
52923;BME280;38796;42.702;23.306;2023-02-10T06:12:04;97037.41;;;-5.57;75.24
52923;BME280;38796;42.702;23.306;2023-02-10T06:14:04;97040.16;;;-4.89;72.12
52923;BME280;38796;42.702;23.306;2023-02-10T06:16:03;97042.72;;;-4.57;69.01
52923;BME280;38796;42.702;23.306;2023-02-10T06:18:02;97043.47;;;-3.78;68.06
52923;BME280;38796;42.702;23.306;2023-02-10T06:20:00;97048.94;;;-2.72;64.94
52923;BME280;38796;42.702;23.306;2023-02-10T06:21:59;97048.50;;;-2.19;61.65
52923;BME280;38796;42.702;23.306;2023-02-10T06:23:57;97046.81;;;-2.24;59.84
52923;BME280;38796;42.702;23.306;2023-02-10T06:25:56;97040.66;;;-2.09;59.93
52923;BME280;38796;42.702;23.306;2023-02-10T06:27:55;97042.19;;;-1.88;58.19
52923;BME280;38796;42.702;23.306;2023-02-10T06:29:55;97050.91;;;-2.00;58.13
52923;BME280;38796;42.702;23.306;2023-02-10T06:31:54;97054.50;;;-2.18;58.16
52923;BME280;38796;42.702;23.306;2023-02-10T06:33:52;97052.63;;;-1.98;58.52
52923;BME280;38796;42.702;23.306;2023-02-10T06:35:51;97051.31;;;-1.57;56.87
52923;BME280;38796;42.702;23.306;2023-02-10T06:37:49;97060.63;;;-1.43;56.54
52923;BME280;38796;42.702;23.306;2023-02-10T06:39:47;97060.53;;;-1.36;54.67
52923;BME280;38796;42.702;23.306;2023-02-10T06:41:45;97050.16;;;-1.34;55.60
52923;BME280;38796;42.702;23.306;2023-02-10T06:43:44;97052.66;;;-1.25;54.73
52923;BME280;38796;42.702;23.306;2023-02-10T06:45:43;97049.19;;;-1.23;54.91
52923;BME280;38796;42.702;23.306;2023-02-10T06:47:42;97047.16;;;-1.02;53.83
52923;BME280;38796;42.702;23.306;2023-02-10T06:49:40;97053.59;;;-1.34;53.62
52923;BME280;38796;42.702;23.306;2023-02-10T06:51:38;97055.03;;;-1.10;53.12
52923;BME280;38796;42.702;23.306;2023-02-10T06:53:37;97059.06;;;-1.57;54.31
52923;BME280;38796;42.702;23.306;2023-02-10T06:55:35;97067.59;;;-1.50;53.81
52923;BME280;38796;42.702;23.306;2023-02-10T06:57:35;97061.00;;;-1.77;54.39
52923;BME280;38796;42.702;23.306;2023-02-10T06:59:33;97062.38;;;-1.46;54.29
52923;BME280;38796;42.702;23.306;2023-02-10T07:01:33;97067.44;;;-1.36;53.76
52923;BME280;38796;42.702;23.306;2023-02-10T07:03:32;97074.66;;;-0.95;52.44
52923;BME280;38796;42.702;23.306;2023-02-10T07:05:30;97074.13;;;-1.18;53.00
52923;BME280;38796;42.702;23.306;2023-02-10T07:07:29;97067.38;;;-1.32;52.57
52923;BME280;38796;42.702;23.306;2023-02-10T07:09:28;97066.28;;;-1.15;52.10
52923;BME280;38796;42.702;23.306;2023-02-10T07:11:26;97070.72;;;-1.22;52.87
52923;BME280;38796;42.702;23.306;2023-02-10T07:13:24;97065.50;;;-1.19;53.46
52923;BME280;38796;42.702;23.306;2023-02-10T07:15:23;97050.44;;;-1.57;54.04
52923;BME280;38796;42.702;23.306;2023-02-10T07:17:23;97062.13;;;-2.01;54.79
52923;BME280;38796;42.702;23.306;2023-02-10T07:19:21;97054.22;;;-1.87;54.64
52923;BME280;38796;42.702;23.306;2023-02-10T07:21:19;97061.72;;;-1.66;54.27
52923;BME280;38796;42.702;23.306;2023-02-10T07:23:18;97055.31;;;-2.11;54.32
52923;BME280;38796;42.702;23.306;2023-02-10T07:25:32;97054.06;;;-2.68;56.53
52923;BME280;38796;42.702;23.306;2023-02-10T07:27:30;97068.28;;;-3.53;59.51
52923;BME280;38796;42.702;23.306;2023-02-10T07:29:29;97067.56;;;-4.10;61.75
52923;BME280;38796;42.702;23.306;2023-02-10T07:31:27;97071.88;;;-4.72;62.98
52923;BME280;38796;42.702;23.306;2023-02-10T07:33:27;97067.50;;;-5.10;64.28
52923;BME280;38796;42.702;23.306;2023-02-10T07:35:26;97068.28;;;-5.37;65.46
52923;BME280;38796;42.702;23.306;2023-02-10T07:37:24;97072.53;;;-5.51;66.37
52923;BME280;38796;42.702;23.306;2023-02-10T07:39:23;97076.00;;;-5.37;66.92
52923;BME280;38796;42.702;23.306;2023-02-10T07:41:22;97069.19;;;-5.25;66.06
52923;BME280;38796;42.702;23.306;2023-02-10T07:43:20;97067.44;;;-5.36;66.79
52923;BME280;38796;42.702;23.306;2023-02-10T07:45:31;97062.31;;;-5.33;66.83
52923;BME280;38796;42.702;23.306;2023-02-10T07:47:30;97060.50;;;-5.52;67.21
52923;BME280;38796;42.702;23.306;2023-02-10T07:49:29;97060.50;;;-5.58;68.48
52923;BME280;38796;42.702;23.306;2023-02-10T07:51:28;97056.22;;;-5.62;68.16
52923;BME280;38796;42.702;23.306;2023-02-10T07:53:26;97068.28;;;-5.44;68.27
52923;BME280;38796;42.702;23.306;2023-02-10T07:55:24;97064.03;;;-5.25;68.12
52923;BME280;38796;42.702;23.306;2023-02-10T07:57:22;97069.25;;;-5.04;66.66
52923;BME280;38796;42.702;23.306;2023-02-10T07:59:21;97076.09;;;-4.97;67.29
52923;BME280;38796;42.702;23.306;2023-02-10T08:01:19;97082.13;;;-4.86;65.79
52923;BME280;38796;42.702;23.306;2023-02-10T08:03:17;97064.94;;;-3.95;64.26
52923;BME280;38796;42.702;23.306;2023-02-10T08:05:17;97062.16;;;-2.07;58.16
52923;BME280;38796;42.702;23.306;2023-02-10T08:07:18;97062.00;;;-0.53;54.77
52923;BME280;38796;42.702;23.306;2023-02-10T08:09:16;97053.28;;;0.50;50.35
52923;BME280;38796;42.702;23.306;2023-02-10T08:11:15;97047.38;;;1.63;47.40
52923;BME280;38796;42.702;23.306;2023-02-10T08:13:14;97046.41;;;1.67;46.13
52923;BME280;38796;42.702;23.306;2023-02-10T08:15:13;97040.94;;;2.12;44.86
52923;BME280;38796;42.702;23.306;2023-02-10T08:17:15;97043.41;;;3.40;42.37
52923;BME280;38796;42.702;23.306;2023-02-10T08:19:14;97038.91;;;4.24;40.17
52923;BME280;38796;42.702;23.306;2023-02-10T08:21:20;97035.34;;;4.75;38.41
52923;BME280;38796;42.702;23.306;2023-02-10T08:23:20;97023.41;;;5.15;37.96
52923;BME280;38796;42.702;23.306;2023-02-10T08:25:21;97028.94;;;5.53;37.00
52923;BME280;38796;42.702;23.306;2023-02-10T08:27:19;97023.19;;;6.09;35.62
52923;BME280;38796;42.702;23.306;2023-02-10T08:29:19;97031.16;;;6.26;36.62
52923;BME280;38796;42.702;23.306;2023-02-10T08:31:18;97027.63;;;6.07;36.12
52923;BME280;38796;42.702;23.306;2023-02-10T08:33:19;97037.44;;;5.58;35.73
52923;BME280;38796;42.702;23.306;2023-02-10T08:35:18;97040.66;;;4.49;37.59
52923;BME280;38796;42.702;23.306;2023-02-10T08:37:18;97035.38;;;4.25;38.07
52923;BME280;38796;42.702;23.306;2023-02-10T08:39:16;97036.75;;;5.31;37.28
52923;BME280;38796;42.702;23.306;2023-02-10T08:41:15;97033.25;;;4.85;37.06
52923;BME280;38796;42.702;23.306;2023-02-10T08:43:15;97033.44;;;4.80;36.37
52923;BME280;38796;42.702;23.306;2023-02-10T08:45:15;97034.34;;;5.48;36.10
52923;BME280;38796;42.702;23.306;2023-02-10T08:47:15;97036.88;;;5.50;36.22
52923;BME280;38796;42.702;23.306;2023-02-10T08:49:14;97028.59;;;6.05;34.62
52923;BME280;38796;42.702;23.306;2023-02-10T08:51:13;97023.19;;;6.30;34.12
52923;BME280;38796;42.702;23.306;2023-02-10T08:53:17;97025.47;;;5.52;35.74
52923;BME280;38796;42.702;23.306;2023-02-10T08:55:15;97023.81;;;5.94;34.90
52923;BME280;38796;42.702;23.306;2023-02-10T08:57:19;97021.91;;;6.79;33.67
52923;BME280;38796;42.702;23.306;2023-02-10T08:59:20;97024.44;;;6.81;33.28
52923;BME280;38796;42.702;23.306;2023-02-10T09:01:24;97022.06;;;5.72;34.41
52923;BME280;38796;42.702;23.306;2023-02-10T09:03:26;97021.31;;;5.47;34.26
52923;BME280;38796;42.702;23.306;2023-02-10T09:05:25;97018.00;;;4.98;36.04
52923;BME280;38796;42.702;23.306;2023-02-10T09:07:24;97016.16;;;5.23;35.59
52923;BME280;38796;42.702;23.306;2023-02-10T09:09:28;97009.22;;;5.22;35.64
52923;BME280;38796;42.702;23.306;2023-02-10T09:11:29;97016.00;;;5.04;36.47
52923;BME280;38796;42.702;23.306;2023-02-10T09:13:27;97012.81;;;5.20;35.92
52923;BME280;38796;42.702;23.306;2023-02-10T09:15:26;97012.22;;;5.35;35.21
52923;BME280;38796;42.702;23.306;2023-02-10T09:17:36;97008.34;;;5.23;35.91
52923;BME280;38796;42.702;23.306;2023-02-10T09:19:35;97002.81;;;5.31;35.51
52923;BME280;38796;42.702;23.306;2023-02-10T09:21:34;97010.03;;;5.24;35.87
52923;BME280;38796;42.702;23.306;2023-02-10T09:23:47;97005.72;;;5.23;35.90
52923;BME280;38796;42.702;23.306;2023-02-10T09:25:53;97000.13;;;5.54;35.82
52923;BME280;38796;42.702;23.306;2023-02-10T09:27:52;96996.31;;;5.84;34.98
52923;BME280;38796;42.702;23.306;2023-02-10T09:29:54;96998.75;;;6.10;34.41
52923;BME280;38796;42.702;23.306;2023-02-10T09:31:52;96993.81;;;6.64;33.47
52923;BME280;38796;42.702;23.306;2023-02-10T09:33:50;97006.13;;;6.00;33.73
52923;BME280;38796;42.702;23.306;2023-02-10T09:35:48;96999.41;;;6.36;33.45
52923;BME280;38796;42.702;23.306;2023-02-10T09:37:47;96987.44;;;6.69;33.29
52923;BME280;38796;42.702;23.306;2023-02-10T09:39:46;96980.56;;;8.13;30.79
52923;BME280;38796;42.702;23.306;2023-02-10T09:41:54;96980.63;;;7.77;30.75
52923;BME280;38796;42.702;23.306;2023-02-10T09:44:01;96973.88;;;7.90;30.85
52923;BME280;38796;42.702;23.306;2023-02-10T09:46:09;96980.63;;;8.64;29.99
52923;BME280;38796;42.702;23.306;2023-02-10T09:48:21;96973.16;;;9.21;28.24
52923;BME280;38796;42.702;23.306;2023-02-10T09:50:32;96974.53;;;9.90;27.65
52923;BME280;38796;42.702;23.306;2023-02-10T09:52:41;96968.84;;;10.28;26.96
52923;BME280;38796;42.702;23.306;2023-02-10T09:54:46;96967.59;;;8.78;28.86
52923;BME280;38796;42.702;23.306;2023-02-10T09:56:46;96971.22;;;8.76;28.85
52923;BME280;38796;42.702;23.306;2023-02-10T09:58:48;96970.25;;;8.61;29.18
52923;BME280;38796;42.702;23.306;2023-02-10T10:00:52;96966.50;;;8.32;29.73
52923;BME280;38796;42.702;23.306;2023-02-10T10:02:54;96958.31;;;9.36;28.33
52923;BME280;38796;42.702;23.306;2023-02-10T10:04:52;96958.75;;;9.12;28.15
52923;BME280;38796;42.702;23.306;2023-02-10T10:06:54;96957.09;;;8.94;28.23
52923;BME280;38796;42.702;23.306;2023-02-10T10:09:16;96950.91;;;8.46;29.52
52923;BME280;38796;42.702;23.306;2023-02-10T10:11:23;96946.16;;;8.02;30.02
52923;BME280;38796;42.702;23.306;2023-02-10T10:13:24;96951.06;;;8.43;29.24
52923;BME280;38796;42.702;23.306;2023-02-10T10:15:30;96939.56;;;8.46;29.48
52923;BME280;38796;42.702;23.306;2023-02-10T10:17:39;96943.03;;;8.29;29.13
52923;BME280;38796;42.702;23.306;2023-02-10T10:19:52;96929.97;;;9.57;28.15
52923;BME280;38796;42.702;23.306;2023-02-10T10:22:04;96930.09;;;9.24;27.94
52923;BME280;38796;42.702;23.306;2023-02-10T10:24:16;96933.78;;;8.22;28.72
52923;BME280;38796;42.702;23.306;2023-02-10T10:26:27;96928.63;;;8.03;29.63
52923;BME280;38796;42.702;23.306;2023-02-10T10:28:46;96922.09;;;8.78;28.36
52923;BME280;38796;42.702;23.306;2023-02-10T10:30:51;96914.31;;;9.39;28.00
52923;BME280;38796;42.702;23.306;2023-02-10T10:32:56;96915.91;;;9.42;27.72
52923;BME280;38796;42.702;23.306;2023-02-10T10:34:57;96918.06;;;10.26;26.63
52923;BME280;38796;42.702;23.306;2023-02-10T10:36:58;96906.28;;;10.17;26.79
52923;BME280;38796;42.702;23.306;2023-02-10T10:38:59;96907.72;;;9.93;26.57